sensor_id;sensor_type;location;lat;lon;timestamp;temperature;humidity
66184;DHT22;52989;48.796;9.806;2022-08-03T00:01:39;17.40;99.90
66184;DHT22;52989;48.796;9.806;2022-08-03T00:04:05;17.40;99.90
66184;DHT22;52989;48.796;9.806;2022-08-03T00:06:31;17.30;99.90
66184;DHT22;52989;48.796;9.806;2022-08-03T00:08:57;17.30;99.90
66184;DHT22;52989;48.796;9.806;2022-08-03T00:11:22;17.60;99.90
66184;DHT22;52989;48.796;9.806;2022-08-03T00:13:48;17.30;99.90
66184;DHT22;52989;48.796;9.806;2022-08-03T00:16:13;17.20;99.90
66184;DHT22;52989;48.796;9.806;2022-08-03T00:18:39;17.20;99.90
66184;DHT22;52989;48.796;9.806;2022-08-03T00:21:05;17.10;99.90
66184;DHT22;52989;48.796;9.806;2022-08-03T00:23:32;17.00;99.90
66184;DHT22;52989;48.796;9.806;2022-08-03T00:25:57;16.90;99.90
66184;DHT22;52989;48.796;9.806;2022-08-03T00:28:23;16.90;99.90
66184;DHT22;52989;48.796;9.806;2022-08-03T00:30:49;17.00;99.90
66184;DHT22;52989;48.796;9.806;2022-08-03T00:33:15;17.00;99.90
66184;DHT22;52989;48.796;9.806;2022-08-03T00:35:41;17.10;99.90
66184;DHT22;52989;48.796;9.806;2022-08-03T00:38:07;17.00;99.90
66184;DHT22;52989;48.796;9.806;2022-08-03T00:40:33;16.90;99.90
66184;DHT22;52989;48.796;9.806;2022-08-03T00:43:03;16.90;99.90
66184;DHT22;52989;48.796;9.806;2022-08-03T00:45:34;16.90;99.90
66184;DHT22;52989;48.796;9.806;2022-08-03T00:48:00;16.90;99.90
66184;DHT22;52989;48.796;9.806;2022-08-03T00:50:28;17.00;99.90
66184;DHT22;52989;48.796;9.806;2022-08-03T00:52:56;17.10;99.90
66184;DHT22;52989;48.796;9.806;2022-08-03T00:55:22;16.70;99.90
66184;DHT22;52989;48.796;9.806;2022-08-03T00:57:48;16.60;99.90
66184;DHT22;52989;48.796;9.806;2022-08-03T01:00:17;16.60;99.90
66184;DHT22;52989;48.796;9.806;2022-08-03T01:02:43;16.60;99.90
66184;DHT22;52989;48.796;9.806;2022-08-03T01:05:09;16.60;99.90
66184;DHT22;52989;48.796;9.806;2022-08-03T01:10:40;16.50;99.90
66184;DHT22;52989;48.796;9.806;2022-08-03T01:13:39;16.60;99.90
66184;DHT22;52989;48.796;9.806;2022-08-03T01:16:20;16.60;99.90
66184;DHT22;52989;48.796;9.806;2022-08-03T01:27:18;17.10;99.90
66184;DHT22;52989;48.796;9.806;2022-08-03T01:29:50;16.60;99.90
66184;DHT22;52989;48.796;9.806;2022-08-03T01:32:20;16.40;99.90
66184;DHT22;52989;48.796;9.806;2022-08-03T01:34:52;16.40;99.90
66184;DHT22;52989;48.796;9.806;2022-08-03T01:37:25;16.30;99.90
66184;DHT22;52989;48.796;9.806;2022-08-03T01:39:54;16.20;99.90
66184;DHT22;52989;48.796;9.806;2022-08-03T01:42:22;16.40;99.90
66184;DHT22;52989;48.796;9.806;2022-08-03T01:44:50;16.40;99.90
66184;DHT22;52989;48.796;9.806;2022-08-03T01:47:19;16.20;99.90
66184;DHT22;52989;48.796;9.806;2022-08-03T01:49:45;16.20;99.90
66184;DHT22;52989;48.796;9.806;2022-08-03T01:52:16;16.30;99.90
66184;DHT22;52989;48.796;9.806;2022-08-03T01:54:44;16.20;99.90
66184;DHT22;52989;48.796;9.806;2022-08-03T01:57:12;16.30;99.90
66184;DHT22;52989;48.796;9.806;2022-08-03T01:59:38;16.40;99.90
66184;DHT22;52989;48.796;9.806;2022-08-03T02:02:05;16.20;99.90
66184;DHT22;52989;48.796;9.806;2022-08-03T02:04:31;16.10;99.90
66184;DHT22;52989;48.796;9.806;2022-08-03T02:06:59;16.00;99.90
66184;DHT22;52989;48.796;9.806;2022-08-03T02:09:26;16.00;99.90
66184;DHT22;52989;48.796;9.806;2022-08-03T02:11:54;16.10;99.90
66184;DHT22;52989;48.796;9.806;2022-08-03T02:14:21;16.30;99.90
66184;DHT22;52989;48.796;9.806;2022-08-03T02:16:48;16.20;99.90
66184;DHT22;52989;48.796;9.806;2022-08-03T02:19:16;16.30;99.90
66184;DHT22;52989;48.796;9.806;2022-08-03T02:21:44;16.10;99.90
66184;DHT22;52989;48.796;9.806;2022-08-03T02:24:11;16.10;99.90
66184;DHT22;52989;48.796;9.806;2022-08-03T02:26:37;16.00;99.90
66184;DHT22;52989;48.796;9.806;2022-08-03T02:29:14;16.00;99.90
66184;DHT22;52989;48.796;9.806;2022-08-03T02:31:42;15.90;99.90
66184;DHT22;52989;48.796;9.806;2022-08-03T02:34:13;15.80;99.90
66184;DHT22;52989;48.796;9.806;2022-08-03T02:36:41;15.60;99.90
66184;DHT22;52989;48.796;9.806;2022-08-03T02:39:10;15.60;99.90
66184;DHT22;52989;48.796;9.806;2022-08-03T02:41:40;15.70;99.90
66184;DHT22;52989;48.796;9.806;2022-08-03T02:44:08;15.90;99.90
66184;DHT22;52989;48.796;9.806;2022-08-03T02:46:37;15.90;99.90
66184;DHT22;52989;48.796;9.806;2022-08-03T02:49:05;15.80;99.90
66184;DHT22;52989;48.796;9.806;2022-08-03T02:51:33;15.80;99.90
66184;DHT22;52989;48.796;9.806;2022-08-03T02:54:01;15.70;99.90
66184;DHT22;52989;48.796;9.806;2022-08-03T02:56:27;15.90;99.90
66184;DHT22;52989;48.796;9.806;2022-08-03T02:58:55;16.00;99.90
66184;DHT22;52989;48.796;9.806;2022-08-03T03:01:24;16.00;99.90
66184;DHT22;52989;48.796;9.806;2022-08-03T03:03:51;15.90;99.90
66184;DHT22;52989;48.796;9.806;2022-08-03T03:06:18;16.00;99.90
66184;DHT22;52989;48.796;9.806;2022-08-03T03:08:45;16.00;99.90
66184;DHT22;52989;48.796;9.806;2022-08-03T03:11:13;15.80;99.90
66184;DHT22;52989;48.796;9.806;2022-08-03T03:13:42;15.70;99.90
66184;DHT22;52989;48.796;9.806;2022-08-03T03:16:09;15.70;99.90
66184;DHT22;52989;48.796;9.806;2022-08-03T03:18:37;15.90;99.90
66184;DHT22;52989;48.796;9.806;2022-08-03T03:21:04;15.80;99.90
66184;DHT22;52989;48.796;9.806;2022-08-03T03:23:35;15.70;99.90
66184;DHT22;52989;48.796;9.806;2022-08-03T03:26:02;15.60;99.90
66184;DHT22;52989;48.796;9.806;2022-08-03T03:28:28;16.20;99.90
66184;DHT22;52989;48.796;9.806;2022-08-03T03:30:55;15.60;99.90
66184;DHT22;52989;48.796;9.806;2022-08-03T03:33:21;15.30;99.90
66184;DHT22;52989;48.796;9.806;2022-08-03T03:35:47;15.20;99.90
66184;DHT22;52989;48.796;9.806;2022-08-03T03:38:13;15.20;99.90
66184;DHT22;52989;48.796;9.806;2022-08-03T03:40:39;15.30;99.90
66184;DHT22;52989;48.796;9.806;2022-08-03T03:43:09;15.20;99.90
66184;DHT22;52989;48.796;9.806;2022-08-03T03:45:35;15.30;99.90
66184;DHT22;52989;48.796;9.806;2022-08-03T03:48:03;15.20;99.90
66184;DHT22;52989;48.796;9.806;2022-08-03T03:50:31;15.10;99.90
66184;DHT22;52989;48.796;9.806;2022-08-03T03:52:57;15.10;99.90
66184;DHT22;52989;48.796;9.806;2022-08-03T03:55:23;15.20;99.90
66184;DHT22;52989;48.796;9.806;2022-08-03T03:57:49;15.20;99.90
66184;DHT22;52989;48.796;9.806;2022-08-03T04:00:17;15.30;99.90
66184;DHT22;52989;48.796;9.806;2022-08-03T04:02:43;15.20;99.90
66184;DHT22;52989;48.796;9.806;2022-08-03T04:05:09;15.20;99.90
66184;DHT22;52989;48.796;9.806;2022-08-03T04:08:06;15.10;99.90
66184;DHT22;52989;48.796;9.806;2022-08-03T04:11:13;15.10;99.90
66184;DHT22;52989;48.796;9.806;2022-08-03T04:13:57;15.30;99.90
66184;DHT22;52989;48.796;9.806;2022-08-03T04:16:27;15.40;99.90
66184;DHT22;52989;48.796;9.806;2022-08-03T04:19:02;15.30;99.90
66184;DHT22;52989;48.796;9.806;2022-08-03T04:21:29;15.30;99.90
66184;DHT22;52989;48.796;9.806;2022-08-03T04:23:59;15.20;99.90
66184;DHT22;52989;48.796;9.806;2022-08-03T04:26:29;15.10;99.90
66184;DHT22;52989;48.796;9.806;2022-08-03T04:28:56;15.20;99.90
66184;DHT22;52989;48.796;9.806;2022-08-03T04:31:23;15.10;99.90
66184;DHT22;52989;48.796;9.806;2022-08-03T04:33:51;15.20;99.90
66184;DHT22;52989;48.796;9.806;2022-08-03T04:36:21;15.30;99.90
66184;DHT22;52989;48.796;9.806;2022-08-03T04:39:15;15.70;99.90
66184;DHT22;52989;48.796;9.806;2022-08-03T04:41:42;15.70;99.90
66184;DHT22;52989;48.796;9.806;2022-08-03T04:44:10;16.00;99.90
66184;DHT22;52989;48.796;9.806;2022-08-03T04:46:38;15.60;99.90
66184;DHT22;52989;48.796;9.806;2022-08-03T04:49:05;15.40;99.90
66184;DHT22;52989;48.796;9.806;2022-08-03T04:51:31;15.30;99.90
66184;DHT22;52989;48.796;9.806;2022-08-03T04:53:59;15.30;99.90
66184;DHT22;52989;48.796;9.806;2022-08-03T04:56:25;15.40;99.90
66184;DHT22;52989;48.796;9.806;2022-08-03T04:58:51;15.60;99.90
66184;DHT22;52989;48.796;9.806;2022-08-03T05:01:17;15.90;99.90
66184;DHT22;52989;48.796;9.806;2022-08-03T05:03:45;15.50;99.90
66184;DHT22;52989;48.796;9.806;2022-08-03T05:06:11;15.50;99.90
66184;DHT22;52989;48.796;9.806;2022-08-03T05:08:36;15.30;99.90
66184;DHT22;52989;48.796;9.806;2022-08-03T05:11:02;15.30;99.90
66184;DHT22;52989;48.796;9.806;2022-08-03T05:13:28;15.50;99.90
66184;DHT22;52989;48.796;9.806;2022-08-03T05:15:53;15.80;99.90
66184;DHT22;52989;48.796;9.806;2022-08-03T05:18:19;16.30;99.90
66184;DHT22;52989;48.796;9.806;2022-08-03T05:20:45;16.00;99.90
66184;DHT22;52989;48.796;9.806;2022-08-03T05:23:10;16.00;99.90
66184;DHT22;52989;48.796;9.806;2022-08-03T05:25:36;15.80;99.90
66184;DHT22;52989;48.796;9.806;2022-08-03T05:28:02;15.80;99.90
66184;DHT22;52989;48.796;9.806;2022-08-03T05:30:27;15.90;99.90
66184;DHT22;52989;48.796;9.806;2022-08-03T05:32:53;16.30;99.90
66184;DHT22;52989;48.796;9.806;2022-08-03T05:35:19;16.20;99.90
66184;DHT22;52989;48.796;9.806;2022-08-03T05:37:44;16.30;99.90
66184;DHT22;52989;48.796;9.806;2022-08-03T05:40:11;16.20;99.90
66184;DHT22;52989;48.796;9.806;2022-08-03T05:42:36;16.20;99.90
66184;DHT22;52989;48.796;9.806;2022-08-03T05:45:05;16.20;99.90
66184;DHT22;52989;48.796;9.806;2022-08-03T05:47:42;16.20;99.90
66184;DHT22;52989;48.796;9.806;2022-08-03T05:50:09;16.30;99.90
66184;DHT22;52989;48.796;9.806;2022-08-03T05:52:35;16.50;99.90
66184;DHT22;52989;48.796;9.806;2022-08-03T05:55:01;16.60;99.90
66184;DHT22;52989;48.796;9.806;2022-08-03T05:57:26;16.70;99.90
66184;DHT22;52989;48.796;9.806;2022-08-03T05:59:52;16.80;99.90
66184;DHT22;52989;48.796;9.806;2022-08-03T06:02:18;16.80;99.90
66184;DHT22;52989;48.796;9.806;2022-08-03T06:04:43;16.90;99.90
66184;DHT22;52989;48.796;9.806;2022-08-03T06:07:09;17.00;99.90
66184;DHT22;52989;48.796;9.806;2022-08-03T06:09:35;17.10;99.90
66184;DHT22;52989;48.796;9.806;2022-08-03T06:12:00;17.20;99.90
66184;DHT22;52989;48.796;9.806;2022-08-03T06:14:26;17.40;99.90
66184;DHT22;52989;48.796;9.806;2022-08-03T06:16:51;17.60;99.90
66184;DHT22;52989;48.796;9.806;2022-08-03T06:19:17;18.10;99.90
66184;DHT22;52989;48.796;9.806;2022-08-03T06:21:43;18.10;99.90
66184;DHT22;52989;48.796;9.806;2022-08-03T06:24:08;18.10;99.90
66184;DHT22;52989;48.796;9.806;2022-08-03T06:26:34;18.20;99.90
66184;DHT22;52989;48.796;9.806;2022-08-03T06:29:00;18.30;99.90
66184;DHT22;52989;48.796;9.806;2022-08-03T06:31:26;18.30;99.90
66184;DHT22;52989;48.796;9.806;2022-08-03T06:33:53;18.30;99.90
66184;DHT22;52989;48.796;9.806;2022-08-03T06:36:19;18.60;99.90
66184;DHT22;52989;48.796;9.806;2022-08-03T06:38:44;18.70;99.90
66184;DHT22;52989;48.796;9.806;2022-08-03T06:41:11;18.90;99.90
66184;DHT22;52989;48.796;9.806;2022-08-03T06:43:37;19.10;99.90
66184;DHT22;52989;48.796;9.806;2022-08-03T06:46:03;19.20;99.90
66184;DHT22;52989;48.796;9.806;2022-08-03T06:48:32;19.30;99.90
66184;DHT22;52989;48.796;9.806;2022-08-03T06:50:57;19.80;99.90
66184;DHT22;52989;48.796;9.806;2022-08-03T06:53:23;19.80;99.90
66184;DHT22;52989;48.796;9.806;2022-08-03T06:55:49;20.10;99.90
66184;DHT22;52989;48.796;9.806;2022-08-03T06:58:15;20.10;99.90
66184;DHT22;52989;48.796;9.806;2022-08-03T07:00:40;20.30;99.90
66184;DHT22;52989;48.796;9.806;2022-08-03T07:03:06;20.60;99.90
66184;DHT22;52989;48.796;9.806;2022-08-03T07:05:31;20.60;99.90
66184;DHT22;52989;48.796;9.806;2022-08-03T07:07:59;20.80;99.90
66184;DHT22;52989;48.796;9.806;2022-08-03T07:10:26;20.90;99.90
66184;DHT22;52989;48.796;9.806;2022-08-03T07:12:52;20.80;99.90
66184;DHT22;52989;48.796;9.806;2022-08-03T07:15:18;21.00;99.90
66184;DHT22;52989;48.796;9.806;2022-08-03T07:17:44;21.20;99.50
66184;DHT22;52989;48.796;9.806;2022-08-03T07:20:10;21.40;99.20
66184;DHT22;52989;48.796;9.806;2022-08-03T07:22:36;21.30;99.90
66184;DHT22;52989;48.796;9.806;2022-08-03T07:25:02;21.40;99.20
66184;DHT22;52989;48.796;9.806;2022-08-03T07:27:27;21.60;99.30
66184;DHT22;52989;48.796;9.806;2022-08-03T07:29:54;21.60;98.00
66184;DHT22;52989;48.796;9.806;2022-08-03T07:32:20;21.90;97.80
66184;DHT22;52989;48.796;9.806;2022-08-03T07:34:45;22.20;95.70
66184;DHT22;52989;48.796;9.806;2022-08-03T07:37:11;22.50;94.70
66184;DHT22;52989;48.796;9.806;2022-08-03T07:39:36;22.50;94.40
66184;DHT22;52989;48.796;9.806;2022-08-03T07:42:02;22.60;93.80
66184;DHT22;52989;48.796;9.806;2022-08-03T07:44:28;22.80;92.60
66184;DHT22;52989;48.796;9.806;2022-08-03T07:46:53;23.00;92.20
66184;DHT22;52989;48.796;9.806;2022-08-03T07:49:19;23.30;91.70
66184;DHT22;52989;48.796;9.806;2022-08-03T07:51:45;23.30;91.60
66184;DHT22;52989;48.796;9.806;2022-08-03T07:54:30;23.30;91.40
66184;DHT22;52989;48.796;9.806;2022-08-03T07:56:56;23.50;91.20
66184;DHT22;52989;48.796;9.806;2022-08-03T07:59:21;23.60;90.50
66184;DHT22;52989;48.796;9.806;2022-08-03T08:01:47;23.70;90.30
66184;DHT22;52989;48.796;9.806;2022-08-03T08:04:12;23.80;88.20
66184;DHT22;52989;48.796;9.806;2022-08-03T08:06:38;24.00;86.10
66184;DHT22;52989;48.796;9.806;2022-08-03T08:09:04;24.30;83.10
66184;DHT22;52989;48.796;9.806;2022-08-03T08:11:29;24.50;80.10
66184;DHT22;52989;48.796;9.806;2022-08-03T08:13:55;24.50;83.30
66184;DHT22;52989;48.796;9.806;2022-08-03T08:16:20;24.50;82.40
66184;DHT22;52989;48.796;9.806;2022-08-03T08:18:46;24.60;79.70
66184;DHT22;52989;48.796;9.806;2022-08-03T08:21:11;24.70;78.90
66184;DHT22;52989;48.796;9.806;2022-08-03T08:23:37;24.80;79.00
66184;DHT22;52989;48.796;9.806;2022-08-03T08:26:02;25.10;77.60
66184;DHT22;52989;48.796;9.806;2022-08-03T08:28:28;25.10;77.50
66184;DHT22;52989;48.796;9.806;2022-08-03T08:30:54;25.30;75.60
66184;DHT22;52989;48.796;9.806;2022-08-03T08:33:19;25.50;73.80
66184;DHT22;52989;48.796;9.806;2022-08-03T08:35:45;25.50;74.30
66184;DHT22;52989;48.796;9.806;2022-08-03T08:38:10;25.50;75.20
66184;DHT22;52989;48.796;9.806;2022-08-03T08:40:36;25.60;75.80
66184;DHT22;52989;48.796;9.806;2022-08-03T08:43:01;25.70;73.00
66184;DHT22;52989;48.796;9.806;2022-08-03T08:45:27;26.30;71.10
66184;DHT22;52989;48.796;9.806;2022-08-03T08:47:54;26.20;72.00
66184;DHT22;52989;48.796;9.806;2022-08-03T08:50:21;26.20;72.10
66184;DHT22;52989;48.796;9.806;2022-08-03T08:52:48;26.50;69.00
66184;DHT22;52989;48.796;9.806;2022-08-03T08:55:20;26.40;71.40
66184;DHT22;52989;48.796;9.806;2022-08-03T08:57:51;26.30;69.60
66184;DHT22;52989;48.796;9.806;2022-08-03T09:00:20;26.60;68.20
66184;DHT22;52989;48.796;9.806;2022-08-03T09:02:46;27.10;67.80
66184;DHT22;52989;48.796;9.806;2022-08-03T09:05:17;27.30;66.80
66184;DHT22;52989;48.796;9.806;2022-08-03T09:07:45;27.50;65.30
66184;DHT22;52989;48.796;9.806;2022-08-03T09:10:12;27.40;66.40
66184;DHT22;52989;48.796;9.806;2022-08-03T09:12:42;26.90;68.40
66184;DHT22;52989;48.796;9.806;2022-08-03T09:15:30;27.10;65.30
66184;DHT22;52989;48.796;9.806;2022-08-03T09:17:58;27.20;63.80
66184;DHT22;52989;48.796;9.806;2022-08-03T09:20:25;27.50;64.00
66184;DHT22;52989;48.796;9.806;2022-08-03T09:23:05;27.70;64.30
66184;DHT22;52989;48.796;9.806;2022-08-03T09:25:33;27.90;64.00
66184;DHT22;52989;48.796;9.806;2022-08-03T09:28:15;27.90;61.50
66184;DHT22;52989;48.796;9.806;2022-08-03T09:30:43;27.90;61.40
66184;DHT22;52989;48.796;9.806;2022-08-03T09:33:11;27.80;62.80
66184;DHT22;52989;48.796;9.806;2022-08-03T09:35:41;28.10;60.60
66184;DHT22;52989;48.796;9.806;2022-08-03T09:38:23;28.10;62.50
66184;DHT22;52989;48.796;9.806;2022-08-03T09:40:52;27.90;64.90
66184;DHT22;52989;48.796;9.806;2022-08-03T09:43:18;28.00;61.00
66184;DHT22;52989;48.796;9.806;2022-08-03T09:45:44;28.50;60.30
66184;DHT22;52989;48.796;9.806;2022-08-03T09:48:27;28.50;59.20
66184;DHT22;52989;48.796;9.806;2022-08-03T09:51:02;28.50;58.40
66184;DHT22;52989;48.796;9.806;2022-08-03T09:53:28;28.40;58.40
66184;DHT22;52989;48.796;9.806;2022-08-03T09:55:56;28.50;58.40
66184;DHT22;52989;48.796;9.806;2022-08-03T09:58:24;28.30;59.60
66184;DHT22;52989;48.796;9.806;2022-08-03T10:00:58;28.50;58.10
66184;DHT22;52989;48.796;9.806;2022-08-03T10:03:25;28.70;57.00
66184;DHT22;52989;48.796;9.806;2022-08-03T10:05:51;28.80;55.80
66184;DHT22;52989;48.796;9.806;2022-08-03T10:08:18;28.90;56.20
66184;DHT22;52989;48.796;9.806;2022-08-03T10:10:45;29.00;56.90
66184;DHT22;52989;48.796;9.806;2022-08-03T10:13:17;29.00;55.00
66184;DHT22;52989;48.796;9.806;2022-08-03T10:15:43;29.10;54.20
66184;DHT22;52989;48.796;9.806;2022-08-03T10:18:08;29.20;57.90
66184;DHT22;52989;48.796;9.806;2022-08-03T10:20:50;29.20;55.90
66184;DHT22;52989;48.796;9.806;2022-08-03T10:23:17;29.10;56.30
66184;DHT22;52989;48.796;9.806;2022-08-03T10:25:46;29.10;56.20
66184;DHT22;52989;48.796;9.806;2022-08-03T10:28:15;28.90;53.00
66184;DHT22;52989;48.796;9.806;2022-08-03T10:30:47;29.20;52.00
66184;DHT22;52989;48.796;9.806;2022-08-03T10:35:44;29.10;55.00
66184;DHT22;52989;48.796;9.806;2022-08-03T10:38:17;29.00;56.50
66184;DHT22;52989;48.796;9.806;2022-08-03T10:40:43;29.30;56.20
66184;DHT22;52989;48.796;9.806;2022-08-03T10:43:17;29.50;51.90
66184;DHT22;52989;48.796;9.806;2022-08-03T10:45:45;29.50;51.70
66184;DHT22;52989;48.796;9.806;2022-08-03T10:48:11;29.90;54.40
66184;DHT22;52989;48.796;9.806;2022-08-03T10:50:37;29.90;54.70
66184;DHT22;52989;48.796;9.806;2022-08-03T10:53:06;30.00;52.60
66184;DHT22;52989;48.796;9.806;2022-08-03T10:55:44;30.00;51.50
66184;DHT22;52989;48.796;9.806;2022-08-03T11:01:14;30.20;49.50
66184;DHT22;52989;48.796;9.806;2022-08-03T11:06:23;30.20;52.50
66184;DHT22;52989;48.796;9.806;2022-08-03T11:11:42;30.40;52.90
66184;DHT22;52989;48.796;9.806;2022-08-03T11:14:19;30.60;50.40
66184;DHT22;52989;48.796;9.806;2022-08-03T11:16:50;30.90;48.40
66184;DHT22;52989;48.796;9.806;2022-08-03T11:19:43;31.00;49.80
66184;DHT22;52989;48.796;9.806;2022-08-03T11:22:09;30.70;50.70
66184;DHT22;52989;48.796;9.806;2022-08-03T11:35:19;31.00;49.70
66184;DHT22;52989;48.796;9.806;2022-08-03T11:48:43;31.50;50.20
66184;DHT22;52989;48.796;9.806;2022-08-03T11:51:22;31.40;46.50
66184;DHT22;52989;48.796;9.806;2022-08-03T11:53:55;31.20;49.10
66184;DHT22;52989;48.796;9.806;2022-08-03T11:56:22;31.00;47.10
66184;DHT22;52989;48.796;9.806;2022-08-03T11:58:49;31.20;47.60
66184;DHT22;52989;48.796;9.806;2022-08-03T12:01:18;31.40;46.90
66184;DHT22;52989;48.796;9.806;2022-08-03T12:03:44;30.90;46.10
66184;DHT22;52989;48.796;9.806;2022-08-03T12:06:12;31.00;46.50
66184;DHT22;52989;48.796;9.806;2022-08-03T12:08:39;30.80;47.60
66184;DHT22;52989;48.796;9.806;2022-08-03T12:11:06;31.30;47.20
66184;DHT22;52989;48.796;9.806;2022-08-03T12:13:50;31.30;46.70
66184;DHT22;52989;48.796;9.806;2022-08-03T12:16:23;31.40;46.50
66184;DHT22;52989;48.796;9.806;2022-08-03T12:19:05;31.70;47.60
66184;DHT22;52989;48.796;9.806;2022-08-03T12:21:33;31.50;46.80
66184;DHT22;52989;48.796;9.806;2022-08-03T12:24:01;31.40;48.60
66184;DHT22;52989;48.796;9.806;2022-08-03T12:26:28;31.50;46.90
66184;DHT22;52989;48.796;9.806;2022-08-03T12:28:54;31.90;47.90
66184;DHT22;52989;48.796;9.806;2022-08-03T12:31:20;31.80;47.70
66184;DHT22;52989;48.796;9.806;2022-08-03T12:34:03;31.90;47.00
66184;DHT22;52989;48.796;9.806;2022-08-03T12:36:31;31.40;46.80
66184;DHT22;52989;48.796;9.806;2022-08-03T12:38:59;31.40;48.00
66184;DHT22;52989;48.796;9.806;2022-08-03T12:41:30;31.80;48.50
66184;DHT22;52989;48.796;9.806;2022-08-03T12:43:56;32.00;48.00
66184;DHT22;52989;48.796;9.806;2022-08-03T12:46:22;31.80;49.20
66184;DHT22;52989;48.796;9.806;2022-08-03T12:49:01;31.70;47.80
66184;DHT22;52989;48.796;9.806;2022-08-03T12:51:28;31.30;48.20
66184;DHT22;52989;48.796;9.806;2022-08-03T12:53:55;31.50;46.20
66184;DHT22;52989;48.796;9.806;2022-08-03T12:56:21;31.30;45.30
66184;DHT22;52989;48.796;9.806;2022-08-03T12:58:47;31.30;46.30
66184;DHT22;52989;48.796;9.806;2022-08-03T13:01:13;32.30;46.00
66184;DHT22;52989;48.796;9.806;2022-08-03T13:03:46;31.60;44.90
66184;DHT22;52989;48.796;9.806;2022-08-03T13:06:31;31.60;46.30
66184;DHT22;52989;48.796;9.806;2022-08-03T13:09:04;31.60;46.40
66184;DHT22;52989;48.796;9.806;2022-08-03T13:11:30;31.70;45.50
66184;DHT22;52989;48.796;9.806;2022-08-03T13:13:56;31.60;45.80
66184;DHT22;52989;48.796;9.806;2022-08-03T13:16:22;31.40;47.60
66184;DHT22;52989;48.796;9.806;2022-08-03T13:18:48;31.60;46.20
66184;DHT22;52989;48.796;9.806;2022-08-03T13:21:18;32.10;47.20
66184;DHT22;52989;48.796;9.806;2022-08-03T13:23:44;32.60;45.20
66184;DHT22;52989;48.796;9.806;2022-08-03T13:26:11;32.30;46.10
66184;DHT22;52989;48.796;9.806;2022-08-03T13:28:37;32.10;44.70
66184;DHT22;52989;48.796;9.806;2022-08-03T13:31:03;32.10;46.40
66184;DHT22;52989;48.796;9.806;2022-08-03T13:33:29;32.10;45.60
66184;DHT22;52989;48.796;9.806;2022-08-03T13:35:54;31.70;44.80
66184;DHT22;52989;48.796;9.806;2022-08-03T13:38:20;31.60;44.60
66184;DHT22;52989;48.796;9.806;2022-08-03T13:40:46;31.30;45.60
66184;DHT22;52989;48.796;9.806;2022-08-03T13:43:11;31.50;46.80
66184;DHT22;52989;48.796;9.806;2022-08-03T13:45:37;31.60;46.10
66184;DHT22;52989;48.796;9.806;2022-08-03T13:48:03;31.80;46.10
66184;DHT22;52989;48.796;9.806;2022-08-03T13:50:29;32.20;48.40
66184;DHT22;52989;48.796;9.806;2022-08-03T13:52:56;32.20;47.20
66184;DHT22;52989;48.796;9.806;2022-08-03T13:55:22;32.10;45.00
66184;DHT22;52989;48.796;9.806;2022-08-03T13:57:47;32.10;45.40
66184;DHT22;52989;48.796;9.806;2022-08-03T14:00:14;31.80;45.20
66184;DHT22;52989;48.796;9.806;2022-08-03T14:02:40;31.70;45.40
66184;DHT22;52989;48.796;9.806;2022-08-03T14:05:05;31.50;46.10
66184;DHT22;52989;48.796;9.806;2022-08-03T14:07:32;31.90;45.50
66184;DHT22;52989;48.796;9.806;2022-08-03T14:09:58;32.10;46.00
66184;DHT22;52989;48.796;9.806;2022-08-03T14:12:25;32.10;45.70
66184;DHT22;52989;48.796;9.806;2022-08-03T14:14:51;32.10;45.90
66184;DHT22;52989;48.796;9.806;2022-08-03T14:17:17;32.20;45.80
66184;DHT22;52989;48.796;9.806;2022-08-03T14:19:42;32.10;45.40
66184;DHT22;52989;48.796;9.806;2022-08-03T14:22:08;31.80;45.40
66184;DHT22;52989;48.796;9.806;2022-08-03T14:24:33;32.10;46.60
66184;DHT22;52989;48.796;9.806;2022-08-03T14:26:59;32.30;46.30
66184;DHT22;52989;48.796;9.806;2022-08-03T14:29:24;32.40;46.80
66184;DHT22;52989;48.796;9.806;2022-08-03T14:31:50;32.50;46.20
66184;DHT22;52989;48.796;9.806;2022-08-03T14:34:15;32.60;46.50
66184;DHT22;52989;48.796;9.806;2022-08-03T14:36:41;32.70;46.30
66184;DHT22;52989;48.796;9.806;2022-08-03T14:39:07;32.70;45.50
66184;DHT22;52989;48.796;9.806;2022-08-03T14:41:32;32.70;44.80
66184;DHT22;52989;48.796;9.806;2022-08-03T14:43:58;32.60;46.20
66184;DHT22;52989;48.796;9.806;2022-08-03T14:46:23;32.70;46.10
66184;DHT22;52989;48.796;9.806;2022-08-03T14:48:49;32.80;45.90
66184;DHT22;52989;48.796;9.806;2022-08-03T14:51:14;32.90;44.70
66184;DHT22;52989;48.796;9.806;2022-08-03T14:53:40;32.50;44.40
66184;DHT22;52989;48.796;9.806;2022-08-03T14:56:06;32.60;45.60
66184;DHT22;52989;48.796;9.806;2022-08-03T14:58:31;32.40;47.20
66184;DHT22;52989;48.796;9.806;2022-08-03T15:00:57;32.50;46.10
66184;DHT22;52989;48.796;9.806;2022-08-03T15:03:23;32.50;44.30
66184;DHT22;52989;48.796;9.806;2022-08-03T15:05:53;32.50;45.20
66184;DHT22;52989;48.796;9.806;2022-08-03T15:08:20;32.40;46.50
66184;DHT22;52989;48.796;9.806;2022-08-03T15:10:46;32.70;45.00
66184;DHT22;52989;48.796;9.806;2022-08-03T15:13:13;32.50;44.50
66184;DHT22;52989;48.796;9.806;2022-08-03T15:15:39;32.30;45.90
66184;DHT22;52989;48.796;9.806;2022-08-03T15:18:05;32.10;46.00
66184;DHT22;52989;48.796;9.806;2022-08-03T15:20:31;32.00;44.50
66184;DHT22;52989;48.796;9.806;2022-08-03T15:22:57;32.10;45.50
66184;DHT22;52989;48.796;9.806;2022-08-03T15:25:22;32.20;44.70
66184;DHT22;52989;48.796;9.806;2022-08-03T15:27:48;32.30;44.30
66184;DHT22;52989;48.796;9.806;2022-08-03T15:30:13;32.40;44.20
66184;DHT22;52989;48.796;9.806;2022-08-03T15:32:39;32.60;43.80
66184;DHT22;52989;48.796;9.806;2022-08-03T15:35:05;32.50;44.60
66184;DHT22;52989;48.796;9.806;2022-08-03T15:37:31;32.50;44.50
66184;DHT22;52989;48.796;9.806;2022-08-03T15:39:56;32.50;44.10
66184;DHT22;52989;48.796;9.806;2022-08-03T15:42:22;32.30;43.70
66184;DHT22;52989;48.796;9.806;2022-08-03T15:44:49;32.20;44.40
66184;DHT22;52989;48.796;9.806;2022-08-03T15:47:14;32.30;46.80
66184;DHT22;52989;48.796;9.806;2022-08-03T15:49:40;32.00;47.70
66184;DHT22;52989;48.796;9.806;2022-08-03T15:52:06;32.00;44.80
66184;DHT22;52989;48.796;9.806;2022-08-03T15:54:32;32.30;45.60
66184;DHT22;52989;48.796;9.806;2022-08-03T15:56:57;32.30;45.50
66184;DHT22;52989;48.796;9.806;2022-08-03T15:59:23;32.20;44.50
66184;DHT22;52989;48.796;9.806;2022-08-03T16:01:48;32.00;47.00
66184;DHT22;52989;48.796;9.806;2022-08-03T16:04:14;31.90;45.20
66184;DHT22;52989;48.796;9.806;2022-08-03T16:06:40;32.10;44.60
66184;DHT22;52989;48.796;9.806;2022-08-03T16:09:06;32.10;43.40
66184;DHT22;52989;48.796;9.806;2022-08-03T16:11:32;32.10;43.50
66184;DHT22;52989;48.796;9.806;2022-08-03T16:13:58;31.90;43.40
66184;DHT22;52989;48.796;9.806;2022-08-03T16:16:24;31.80;42.60
66184;DHT22;52989;48.796;9.806;2022-08-03T16:18:50;31.80;43.00